sensor_id;sensor_type;location;lat;lon;timestamp;pressure;altitude;pressure_sealevel;temperature;humidity
74635;BME280;63140;56.306;43.984;2022-12-18T00:00:53;99318.59;;;-3.36;81.64
74635;BME280;63140;56.306;43.984;2022-12-18T00:03:19;99311.47;;;-3.44;81.94
74635;BME280;63140;56.306;43.984;2022-12-18T00:05:50;99314.06;;;-3.44;82.27
74635;BME280;63140;56.306;43.984;2022-12-18T00:08:16;99297.63;;;-3.40;81.90
74635;BME280;63140;56.306;43.984;2022-12-18T00:10:43;99293.47;;;-3.41;81.89
74635;BME280;63140;56.306;43.984;2022-12-18T00:13:10;99291.38;;;-3.39;81.98
74635;BME280;63140;56.306;43.984;2022-12-18T00:15:38;99275.03;;;-3.39;81.47
74635;BME280;63140;56.306;43.984;2022-12-18T00:18:04;99268.31;;;-3.40;81.73
74635;BME280;63140;56.306;43.984;2022-12-18T00:20:32;99270.91;;;-3.40;81.75
74635;BME280;63140;56.306;43.984;2022-12-18T00:23:01;99251.19;;;-3.41;81.58
74635;BME280;63140;56.306;43.984;2022-12-18T00:25:26;99250.59;;;-3.38;82.06
74635;BME280;63140;56.306;43.984;2022-12-18T00:27:52;99238.09;;;-3.36;81.62
74635;BME280;63140;56.306;43.984;2022-12-18T00:30:18;99229.56;;;-3.37;81.56
74635;BME280;63140;56.306;43.984;2022-12-18T00:32:44;99223.28;;;-3.36;81.72
74635;BME280;63140;56.306;43.984;2022-12-18T00:35:10;99211.38;;;-3.37;81.70
74635;BME280;63140;56.306;43.984;2022-12-18T00:37:36;99197.31;;;-3.36;81.70
74635;BME280;63140;56.306;43.984;2022-12-18T00:40:03;99174.25;;;-3.37;81.29
74635;BME280;63140;56.306;43.984;2022-12-18T00:42:30;99172.13;;;-3.35;81.22
74635;BME280;63140;56.306;43.984;2022-12-18T00:45:15;99180.56;;;-3.29;81.45
74635;BME280;63140;56.306;43.984;2022-12-18T00:47:41;99173.72;;;-3.25;81.19
74635;BME280;63140;56.306;43.984;2022-12-18T00:50:07;99157.38;;;-3.26;81.10
74635;BME280;63140;56.306;43.984;2022-12-18T00:52:34;99145.44;;;-3.27;81.33
74635;BME280;63140;56.306;43.984;2022-12-18T00:54:59;99142.25;;;-3.24;81.38
74635;BME280;63140;56.306;43.984;2022-12-18T00:57:25;99118.88;;;-3.24;81.54
74635;BME280;63140;56.306;43.984;2022-12-18T00:59:51;99106.50;;;-3.27;81.40
74635;BME280;63140;56.306;43.984;2022-12-18T01:02:17;99094.56;;;-3.28;81.53
74635;BME280;63140;56.306;43.984;2022-12-18T01:04:43;99079.59;;;-3.31;81.33
74635;BME280;63140;56.306;43.984;2022-12-18T01:07:11;99083.44;;;-3.28;81.39
74635;BME280;63140;56.306;43.984;2022-12-18T01:09:37;99074.72;;;-3.32;81.74
74635;BME280;63140;56.306;43.984;2022-12-18T01:12:05;99070.13;;;-3.27;81.18
74635;BME280;63140;56.306;43.984;2022-12-18T01:14:30;99059.75;;;-3.27;81.13
74635;BME280;63140;56.306;43.984;2022-12-18T01:16:56;99049.38;;;-3.27;81.20
74635;BME280;63140;56.306;43.984;2022-12-18T01:19:22;99049.38;;;-3.27;81.05
74635;BME280;63140;56.306;43.984;2022-12-18T01:21:49;99050.44;;;-3.28;81.36
74635;BME280;63140;56.306;43.984;2022-12-18T01:24:15;99035.94;;;-3.29;81.30
74635;BME280;63140;56.306;43.984;2022-12-18T01:26:41;99036.69;;;-3.28;81.54
74635;BME280;63140;56.306;43.984;2022-12-18T01:29:06;99039.59;;;-3.30;81.56
74635;BME280;63140;56.306;43.984;2022-12-18T01:31:33;99040.53;;;-3.26;81.38
74635;BME280;63140;56.306;43.984;2022-12-18T01:34:02;99037.34;;;-3.23;81.17
74635;BME280;63140;56.306;43.984;2022-12-18T01:36:33;99055.69;;;-3.19;81.01
74635;BME280;63140;56.306;43.984;2022-12-18T01:39:01;99065.44;;;-3.16;81.03
74635;BME280;63140;56.306;43.984;2022-12-18T01:41:29;99060.56;;;-3.18;80.96
74635;BME280;63140;56.306;43.984;2022-12-18T01:47:25;99036.25;;;-3.22;81.72
74635;BME280;63140;56.306;43.984;2022-12-18T01:49:52;99017.00;;;-3.21;81.26
74635;BME280;63140;56.306;43.984;2022-12-18T01:52:20;98993.81;;;-3.17;81.19
74635;BME280;63140;56.306;43.984;2022-12-18T01:54:47;98988.91;;;-3.19;81.40
74635;BME280;63140;56.306;43.984;2022-12-18T01:57:14;98968.16;;;-3.19;81.63
74635;BME280;63140;56.306;43.984;2022-12-18T01:59:41;98968.75;;;-3.22;81.81
74635;BME280;63140;56.306;43.984;2022-12-18T02:02:08;98949.34;;;-3.24;81.80
74635;BME280;63140;56.306;43.984;2022-12-18T02:04:34;98925.69;;;-3.23;82.04
74635;BME280;63140;56.306;43.984;2022-12-18T02:07:06;98917.91;;;-3.23;82.13
74635;BME280;63140;56.306;43.984;2022-12-18T02:10:02;98903.38;;;-3.24;82.31
74635;BME280;63140;56.306;43.984;2022-12-18T02:12:39;98901.84;;;-3.25;82.47
74635;BME280;63140;56.306;43.984;2022-12-18T02:15:19;98893.91;;;-3.20;82.45
74635;BME280;63140;56.306;43.984;2022-12-18T02:17:54;98897.44;;;-3.16;81.76
74635;BME280;63140;56.306;43.984;2022-12-18T02:23:06;98890.41;;;-3.15;81.51
74635;BME280;63140;56.306;43.984;2022-12-18T02:28:19;98913.75;;;-3.24;82.04
74635;BME280;63140;56.306;43.984;2022-12-18T02:30:47;98917.44;;;-3.25;82.02
74635;BME280;63140;56.306;43.984;2022-12-18T02:33:15;98912.84;;;-3.28;81.84
74635;BME280;63140;56.306;43.984;2022-12-18T02:35:44;98884.28;;;-3.28;82.34
74635;BME280;63140;56.306;43.984;2022-12-18T02:38:11;98856.47;;;-3.27;82.81
74635;BME280;63140;56.306;43.984;2022-12-18T02:40:40;98833.44;;;-3.29;82.32
74635;BME280;63140;56.306;43.984;2022-12-18T02:43:13;98824.72;;;-3.24;82.05
74635;BME280;63140;56.306;43.984;2022-12-18T02:45:50;98801.06;;;-3.23;82.63
74635;BME280;63140;56.306;43.984;2022-12-18T02:48:22;98774.16;;;-3.27;82.32
74635;BME280;63140;56.306;43.984;2022-12-18T02:51:08;98746.38;;;-3.35;82.59
74635;BME280;63140;56.306;43.984;2022-12-18T02:53:43;98741.19;;;-3.35;83.29
74635;BME280;63140;56.306;43.984;2022-12-18T02:56:18;98730.53;;;-3.42;83.70
74635;BME280;63140;56.306;43.984;2022-12-18T03:04:16;98677.25;;;-3.48;84.32
74635;BME280;63140;56.306;43.984;2022-12-18T03:06:47;98663.66;;;-3.45;84.32
74635;BME280;63140;56.306;43.984;2022-12-18T03:09:21;98653.28;;;-3.45;84.09
74635;BME280;63140;56.306;43.984;2022-12-18T03:11:56;98640.28;;;-3.45;84.36
74635;BME280;63140;56.306;43.984;2022-12-18T03:14:45;98619.72;;;-3.50;84.57
74635;BME280;63140;56.306;43.984;2022-12-18T03:17:18;98608.88;;;-3.52;84.76
74635;BME280;63140;56.306;43.984;2022-12-18T03:19:46;98611.31;;;-3.56;85.04
74635;BME280;63140;56.306;43.984;2022-12-18T03:22:15;98604.75;;;-3.62;85.40
74635;BME280;63140;56.306;43.984;2022-12-18T03:24:49;98602.31;;;-3.58;85.08
74635;BME280;63140;56.306;43.984;2022-12-18T03:27:18;98602.78;;;-3.56;84.72
74635;BME280;63140;56.306;43.984;2022-12-18T03:30:02;98620.66;;;-3.64;85.25
74635;BME280;63140;56.306;43.984;2022-12-18T03:35:18;98659.69;;;-3.51;85.03
74635;BME280;63140;56.306;43.984;2022-12-18T03:37:46;98652.19;;;-3.44;84.45
74635;BME280;63140;56.306;43.984;2022-12-18T03:40:12;98627.47;;;-3.42;84.23
74635;BME280;63140;56.306;43.984;2022-12-18T03:43:15;98630.19;;;-3.38;84.26
74635;BME280;63140;56.306;43.984;2022-12-18T03:45:50;98629.13;;;-3.37;84.28
74635;BME280;63140;56.306;43.984;2022-12-18T03:48:31;98629.72;;;-3.31;84.19
74635;BME280;63140;56.306;43.984;2022-12-18T03:51:31;98617.19;;;-3.29;84.00
74635;BME280;63140;56.306;43.984;2022-12-18T03:54:02;98600.41;;;-3.32;83.56
74635;BME280;63140;56.306;43.984;2022-12-18T03:56:42;98593.84;;;-3.29;84.13
74635;BME280;63140;56.306;43.984;2022-12-18T03:59:12;98595.03;;;-3.27;83.88
74635;BME280;63140;56.306;43.984;2022-12-18T04:01:42;98579.91;;;-3.25;83.26
74635;BME280;63140;56.306;43.984;2022-12-18T04:04:14;98597.47;;;-3.22;83.98
74635;BME280;63140;56.306;43.984;2022-12-18T04:06:43;98579.28;;;-3.22;83.34
74635;BME280;63140;56.306;43.984;2022-12-18T04:09:11;98577.78;;;-3.23;83.93
74635;BME280;63140;56.306;43.984;2022-12-18T04:11:42;98589.66;;;-3.22;83.38
74635;BME280;63140;56.306;43.984;2022-12-18T04:14:14;98575.63;;;-3.21;83.57
74635;BME280;63140;56.306;43.984;2022-12-18T04:16:40;98562.63;;;-3.21;84.02
74635;BME280;63140;56.306;43.984;2022-12-18T04:19:09;98569.78;;;-3.18;84.09
74635;BME280;63140;56.306;43.984;2022-12-18T04:21:39;98569.16;;;-3.15;83.52
74635;BME280;63140;56.306;43.984;2022-12-18T04:24:05;98561.19;;;-3.09;83.94
74635;BME280;63140;56.306;43.984;2022-12-18T04:26:33;98548.53;;;-3.11;83.57
74635;BME280;63140;56.306;43.984;2022-12-18T04:29:11;98553.41;;;-3.09;84.02
74635;BME280;63140;56.306;43.984;2022-12-18T04:31:37;98557.81;;;-3.01;83.46
74635;BME280;63140;56.306;43.984;2022-12-18T04:34:03;98551.06;;;-3.02;83.42
74635;BME280;63140;56.306;43.984;2022-12-18T04:36:35;98540.69;;;-3.02;83.74
74635;BME280;63140;56.306;43.984;2022-12-18T04:39:01;98531.97;;;-2.98;83.57
74635;BME280;63140;56.306;43.984;2022-12-18T04:41:27;98526.44;;;-2.96;83.52
74635;BME280;63140;56.306;43.984;2022-12-18T04:43:53;98519.09;;;-2.94;83.57
74635;BME280;63140;56.306;43.984;2022-12-18T04:46:19;98517.41;;;-2.90;83.64
74635;BME280;63140;56.306;43.984;2022-12-18T04:48:46;98513.72;;;-2.89;83.40
74635;BME280;63140;56.306;43.984;2022-12-18T04:51:12;98519.78;;;-2.85;83.29
74635;BME280;63140;56.306;43.984;2022-12-18T04:53:38;98518.06;;;-2.81;83.63
74635;BME280;63140;56.306;43.984;2022-12-18T04:56:10;98518.34;;;-2.74;82.52
74635;BME280;63140;56.306;43.984;2022-12-18T04:58:36;98517.28;;;-2.73;82.71
74635;BME280;63140;56.306;43.984;2022-12-18T05:01:03;98505.63;;;-2.67;82.61
74635;BME280;63140;56.306;43.984;2022-12-18T05:03:29;98501.28;;;-2.62;82.80
74635;BME280;63140;56.306;43.984;2022-12-18T05:05:55;98500.41;;;-2.67;82.29
74635;BME280;63140;56.306;43.984;2022-12-18T05:08:21;98499.63;;;-2.67;82.59
74635;BME280;63140;56.306;43.984;2022-12-18T05:10:47;98496.91;;;-2.71;82.89
74635;BME280;63140;56.306;43.984;2022-12-18T05:13:13;98486.09;;;-2.73;82.76
74635;BME280;63140;56.306;43.984;2022-12-18T05:15:38;98494.97;;;-2.74;82.70
74635;BME280;63140;56.306;43.984;2022-12-18T05:18:04;98479.38;;;-2.74;82.45
74635;BME280;63140;56.306;43.984;2022-12-18T05:20:31;98476.31;;;-2.76;82.64
74635;BME280;63140;56.306;43.984;2022-12-18T05:22:56;98489.63;;;-2.77;82.68
74635;BME280;63140;56.306;43.984;2022-12-18T05:25:23;98480.91;;;-2.73;82.84
74635;BME280;63140;56.306;43.984;2022-12-18T05:27:49;98472.00;;;-2.72;82.69
74635;BME280;63140;56.306;43.984;2022-12-18T05:30:15;98476.25;;;-2.67;82.54
74635;BME280;63140;56.306;43.984;2022-12-18T05:32:42;98466.38;;;-2.74;82.20
74635;BME280;63140;56.306;43.984;2022-12-18T05:35:10;98454.56;;;-2.71;82.59
74635;BME280;63140;56.306;43.984;2022-12-18T05:37:36;98448.19;;;-2.74;82.60
74635;BME280;63140;56.306;43.984;2022-12-18T05:40:03;98454.28;;;-2.70;82.51
74635;BME280;63140;56.306;43.984;2022-12-18T05:42:30;98459.47;;;-2.70;82.22
74635;BME280;63140;56.306;43.984;2022-12-18T05:44:56;98442.56;;;-2.76;82.26
74635;BME280;63140;56.306;43.984;2022-12-18T05:47:22;98439.31;;;-2.73;82.19
74635;BME280;63140;56.306;43.984;2022-12-18T05:49:48;98432.63;;;-2.74;82.42
74635;BME280;63140;56.306;43.984;2022-12-18T05:52:14;98445.41;;;-2.69;81.98
74635;BME280;63140;56.306;43.984;2022-12-18T05:54:40;98432.63;;;-2.74;81.98
74635;BME280;63140;56.306;43.984;2022-12-18T05:57:05;98442.34;;;-2.71;82.01
74635;BME280;63140;56.306;43.984;2022-12-18T05:59:31;98445.84;;;-2.67;82.21
74635;BME280;63140;56.306;43.984;2022-12-18T06:01:57;98445.84;;;-2.67;82.15
74635;BME280;63140;56.306;43.984;2022-12-18T06:04:23;98437.72;;;-2.65;82.38
74635;BME280;63140;56.306;43.984;2022-12-18T06:06:49;98435.56;;;-2.63;81.92
74635;BME280;63140;56.306;43.984;2022-12-18T06:09:15;98418.13;;;-2.62;82.32
74635;BME280;63140;56.306;43.984;2022-12-18T06:11:40;98425.72;;;-2.57;82.27
74635;BME280;63140;56.306;43.984;2022-12-18T06:14:07;98426.94;;;-2.55;82.17
74635;BME280;63140;56.306;43.984;2022-12-18T06:16:33;98414.22;;;-2.56;81.92
74635;BME280;63140;56.306;43.984;2022-12-18T06:19:00;98417.28;;;-2.54;82.09
74635;BME280;63140;56.306;43.984;2022-12-18T06:21:27;98417.72;;;-2.52;82.02
74635;BME280;63140;56.306;43.984;2022-12-18T06:23:54;98417.84;;;-2.49;81.85
74635;BME280;63140;56.306;43.984;2022-12-18T06:26:19;98423.91;;;-2.45;82.00
74635;BME280;63140;56.306;43.984;2022-12-18T06:28:45;98427.50;;;-2.37;81.71
74635;BME280;63140;56.306;43.984;2022-12-18T06:31:11;98416.66;;;-2.39;81.44
74635;BME280;63140;56.306;43.984;2022-12-18T06:33:37;98409.66;;;-2.38;81.58
74635;BME280;63140;56.306;43.984;2022-12-18T06:36:06;98410.59;;;-2.43;81.89
74635;BME280;63140;56.306;43.984;2022-12-18T06:38:34;98392.63;;;-2.48;81.79
74635;BME280;63140;56.306;43.984;2022-12-18T06:41:00;98388.28;;;-2.44;81.81
74635;BME280;63140;56.306;43.984;2022-12-18T06:43:26;98388.28;;;-2.44;81.76
74635;BME280;63140;56.306;43.984;2022-12-18T06:46:00;98388.41;;;-2.41;81.44
74635;BME280;63140;56.306;43.984;2022-12-18T06:48:26;98391.44;;;-2.38;81.21
74635;BME280;63140;56.306;43.984;2022-12-18T06:50:52;98383.53;;;-2.42;81.71
74635;BME280;63140;56.306;43.984;2022-12-18T06:53:18;98370.53;;;-2.42;81.56
74635;BME280;63140;56.306;43.984;2022-12-18T06:55:44;98366.84;;;-2.41;81.87
74635;BME280;63140;56.306;43.984;2022-12-18T06:58:10;98367.72;;;-2.37;81.62
74635;BME280;63140;56.306;43.984;2022-12-18T07:00:36;98353.41;;;-2.43;81.74
74635;BME280;63140;56.306;43.984;2022-12-18T07:03:01;98348.19;;;-2.43;82.01
74635;BME280;63140;56.306;43.984;2022-12-18T07:05:27;98352.75;;;-2.40;81.61
74635;BME280;63140;56.306;43.984;2022-12-18T07:07:53;98340.97;;;-2.37;81.74
74635;BME280;63140;56.306;43.984;2022-12-18T07:10:19;98339.34;;;-2.42;81.50
74635;BME280;63140;56.306;43.984;2022-12-18T07:12:45;98341.94;;;-2.42;81.60
74635;BME280;63140;56.306;43.984;2022-12-18T07:15:11;98351.25;;;-2.41;80.91
74635;BME280;63140;56.306;43.984;2022-12-18T07:17:37;98342.25;;;-2.44;81.40
74635;BME280;63140;56.306;43.984;2022-12-18T07:20:03;98328.28;;;-2.39;81.29
74635;BME280;63140;56.306;43.984;2022-12-18T07:22:29;98341.72;;;-2.37;81.03
74635;BME280;63140;56.306;43.984;2022-12-18T07:24:55;98347.47;;;-2.31;81.22
74635;BME280;63140;56.306;43.984;2022-12-18T07:27:21;98339.69;;;-2.31;81.54
74635;BME280;63140;56.306;43.984;2022-12-18T07:29:47;98342.03;;;-2.26;81.25
74635;BME280;63140;56.306;43.984;2022-12-18T07:32:13;98334.47;;;-2.31;80.93
74635;BME280;63140;56.306;43.984;2022-12-18T07:34:39;98318.75;;;-2.35;81.26
74635;BME280;63140;56.306;43.984;2022-12-18T07:37:05;98323.28;;;-2.32;80.99
74635;BME280;63140;56.306;43.984;2022-12-18T07:39:31;98318.09;;;-2.32;81.05
74635;BME280;63140;56.306;43.984;2022-12-18T07:41:56;98319.19;;;-2.33;80.71
74635;BME280;63140;56.306;43.984;2022-12-18T07:44:49;98321.88;;;-2.29;80.97
74635;BME280;63140;56.306;43.984;2022-12-18T07:47:14;98315.06;;;-2.34;81.08
74635;BME280;63140;56.306;43.984;2022-12-18T07:49:40;98311.16;;;-2.40;81.40
74635;BME280;63140;56.306;43.984;2022-12-18T07:52:06;98302.06;;;-2.46;81.58
74635;BME280;63140;56.306;43.984;2022-12-18T07:54:32;98299.03;;;-2.48;81.70
74635;BME280;63140;56.306;43.984;2022-12-18T07:56:58;98297.66;;;-2.46;81.80
74635;BME280;63140;56.306;43.984;2022-12-18T07:59:23;98294.72;;;-2.44;81.50
74635;BME280;63140;56.306;43.984;2022-12-18T08:01:49;98297.06;;;-2.39;81.78
74635;BME280;63140;56.306;43.984;2022-12-18T08:04:15;98286.69;;;-2.39;80.89
74635;BME280;63140;56.306;43.984;2022-12-18T08:06:41;98285.16;;;-2.40;81.16
74635;BME280;63140;56.306;43.984;2022-12-18T08:09:07;98291.13;;;-2.40;80.97
74635;BME280;63140;56.306;43.984;2022-12-18T08:11:34;98287.34;;;-2.42;80.53
74635;BME280;63140;56.306;43.984;2022-12-18T08:14:00;98288.88;;;-2.41;80.99
74635;BME280;63140;56.306;43.984;2022-12-18T08:16:26;98282.03;;;-2.46;80.90
74635;BME280;63140;56.306;43.984;2022-12-18T08:18:53;98288.66;;;-2.48;81.13
74635;BME280;63140;56.306;43.984;2022-12-18T08:21:25;98286.25;;;-2.53;81.21
74635;BME280;63140;56.306;43.984;2022-12-18T08:23:53;98277.38;;;-2.52;81.55
74635;BME280;63140;56.306;43.984;2022-12-18T08:26:20;98283.88;;;-2.46;81.46
74635;BME280;63140;56.306;43.984;2022-12-18T08:28:46;98290.56;;;-2.57;81.33
74635;BME280;63140;56.306;43.984;2022-12-18T08:31:12;98291.97;;;-2.60;81.27
74635;BME280;63140;56.306;43.984;2022-12-18T08:33:40;98284.84;;;-2.63;81.78
74635;BME280;63140;56.306;43.984;2022-12-18T08:36:06;98279.22;;;-2.65;81.47
74635;BME280;63140;56.306;43.984;2022-12-18T08:38:32;98302.25;;;-2.64;81.51
74635;BME280;63140;56.306;43.984;2022-12-18T08:41:03;98300.75;;;-2.65;81.72
74635;BME280;63140;56.306;43.984;2022-12-18T08:43:30;98307.56;;;-2.60;81.68
74635;BME280;63140;56.306;43.984;2022-12-18T08:46:18;98297.41;;;-2.53;81.50
74635;BME280;63140;56.306;43.984;2022-12-18T08:48:44;98307.91;;;-2.49;81.08
74635;BME280;63140;56.306;43.984;2022-12-18T08:51:10;98310.94;;;-2.47;81.27
74635;BME280;63140;56.306;43.984;2022-12-18T08:53:36;98312.69;;;-2.51;81.05
74635;BME280;63140;56.306;43.984;2022-12-18T08:56:03;98296.53;;;-2.57;81.34
74635;BME280;63140;56.306;43.984;2022-12-18T08:58:30;98295.78;;;-2.57;81.24
74635;BME280;63140;56.306;43.984;2022-12-18T09:01:07;98305.09;;;-2.56;81.07
74635;BME280;63140;56.306;43.984;2022-12-18T09:03:35;98300.44;;;-2.51;81.43
74635;BME280;63140;56.306;43.984;2022-12-18T09:06:01;98300.09;;;-2.49;81.11
74635;BME280;63140;56.306;43.984;2022-12-18T09:08:27;98310.50;;;-2.49;80.89
74635;BME280;63140;56.306;43.984;2022-12-18T09:10:54;98304.44;;;-2.53;81.03
74635;BME280;63140;56.306;43.984;2022-12-18T09:13:21;98308.25;;;-2.51;80.45
74635;BME280;63140;56.306;43.984;2022-12-18T09:15:49;98303.50;;;-2.49;80.52
74635;BME280;63140;56.306;43.984;2022-12-18T09:18:17;98303.78;;;-2.50;80.63
74635;BME280;63140;56.306;43.984;2022-12-18T09:20:44;98302.06;;;-2.58;80.10
74635;BME280;63140;56.306;43.984;2022-12-18T09:23:10;98306.16;;;-2.57;80.68
74635;BME280;63140;56.306;43.984;2022-12-18T09:25:37;98309.00;;;-2.50;80.22
74635;BME280;63140;56.306;43.984;2022-12-18T09:28:05;98308.34;;;-2.47;80.11
74635;BME280;63140;56.306;43.984;2022-12-18T09:30:32;98305.22;;;-2.41;79.90
74635;BME280;63140;56.306;43.984;2022-12-18T09:33:00;98305.97;;;-2.40;79.83
74635;BME280;63140;56.306;43.984;2022-12-18T09:35:25;98305.84;;;-2.44;79.32
74635;BME280;63140;56.306;43.984;2022-12-18T09:37:53;98302.16;;;-2.43;80.01
74635;BME280;63140;56.306;43.984;2022-12-18T09:40:23;98295.47;;;-2.44;79.90
74635;BME280;63140;56.306;43.984;2022-12-18T09:43:23;98304.88;;;-2.39;80.04
74635;BME280;63140;56.306;43.984;2022-12-18T09:45:57;98307.47;;;-2.39;79.51
74635;BME280;63140;56.306;43.984;2022-12-18T09:48:51;98301.41;;;-2.43;79.39
74635;BME280;63140;56.306;43.984;2022-12-18T09:51:26;98299.47;;;-2.46;79.39
74635;BME280;63140;56.306;43.984;2022-12-18T09:53:58;98308.91;;;-2.42;79.53
74635;BME280;63140;56.306;43.984;2022-12-18T09:56:28;98301.41;;;-2.43;79.13
74635;BME280;63140;56.306;43.984;2022-12-18T09:59:00;98303.78;;;-2.50;79.43
74635;BME280;63140;56.306;43.984;2022-12-18T10:01:27;98311.38;;;-2.57;79.49
74635;BME280;63140;56.306;43.984;2022-12-18T10:03:54;98316.47;;;-2.61;79.47
74635;BME280;63140;56.306;43.984;2022-12-18T10:06:22;98313.44;;;-2.63;79.71
74635;BME280;63140;56.306;43.984;2022-12-18T10:09:15;98310.38;;;-2.65;79.56
74635;BME280;63140;56.306;43.984;2022-12-18T10:12:28;98310.91;;;-2.72;79.90
74635;BME280;63140;56.306;43.984;2022-12-18T10:15:16;98303.75;;;-2.75;80.25
74635;BME280;63140;56.306;43.984;2022-12-18T10:20:46;98323.03;;;-2.76;79.91
74635;BME280;63140;56.306;43.984;2022-12-18T10:23:26;98321.75;;;-2.70;80.21
74635;BME280;63140;56.306;43.984;2022-12-18T10:26:04;98320.56;;;-2.60;80.50
74635;BME280;63140;56.306;43.984;2022-12-18T10:28:32;98335.31;;;-2.52;80.27
74635;BME280;63140;56.306;43.984;2022-12-18T10:30:58;98334.56;;;-2.52;79.35
74635;BME280;63140;56.306;43.984;2022-12-18T10:33:28;98343.41;;;-2.53;79.59
74635;BME280;63140;56.306;43.984;2022-12-18T10:35:54;98345.81;;;-2.48;79.94
74635;BME280;63140;56.306;43.984;2022-12-18T10:38:25;98354.28;;;-2.51;79.42
74635;BME280;63140;56.306;43.984;2022-12-18T10:41:03;98356.22;;;-2.48;79.71
74635;BME280;63140;56.306;43.984;2022-12-18T10:51:33;98358.50;;;-2.47;79.02
74635;BME280;63140;56.306;43.984;2022-12-18T10:54:06;98368.13;;;-2.47;78.79
74635;BME280;63140;56.306;43.984;2022-12-18T10:56:39;98367.66;;;-2.61;78.38
74635;BME280;63140;56.306;43.984;2022-12-18T10:59:07;98367.66;;;-2.61;78.66
74635;BME280;63140;56.306;43.984;2022-12-18T11:04:26;98378.47;;;-2.72;78.52
74635;BME280;63140;56.306;43.984;2022-12-18T11:07:08;98371.66;;;-2.76;78.58
74635;BME280;63140;56.306;43.984;2022-12-18T11:09:35;98367.84;;;-2.79;78.66
74635;BME280;63140;56.306;43.984;2022-12-18T11:12:04;98363.75;;;-2.80;78.96
74635;BME280;63140;56.306;43.984;2022-12-18T11:14:53;98370.66;;;-2.84;79.03
74635;BME280;63140;56.306;43.984;2022-12-18T11:17:34;98370.84;;;-2.89;78.47
74635;BME280;63140;56.306;43.984;2022-12-18T11:20:05;98394.84;;;-2.92;79.01
74635;BME280;63140;56.306;43.984;2022-12-18T11:22:35;98387.91;;;-3.00;78.64
74635;BME280;63140;56.306;43.984;2022-12-18T11:27:37;98388.78;;;-2.96;78.03
74635;BME280;63140;56.306;43.984;2022-12-18T11:38:13;98407.06;;;-3.26;78.27
74635;BME280;63140;56.306;43.984;2022-12-18T11:40:43;98418.94;;;-3.25;79.23
74635;BME280;63140;56.306;43.984;2022-12-18T11:43:25;98412.25;;;-3.26;78.96
74635;BME280;63140;56.306;43.984;2022-12-18T11:45:53;98429.97;;;-3.28;79.00
74635;BME280;63140;56.306;43.984;2022-12-18T11:48:23;98435.16;;;-3.28;79.10
74635;BME280;63140;56.306;43.984;2022-12-18T11:50:58;98431.97;;;-3.33;78.87
74635;BME280;63140;56.306;43.984;2022-12-18T11:53:26;98451.72;;;-3.41;78.25
74635;BME280;63140;56.306;43.984;2022-12-18T11:58:46;98457.72;;;-3.49;78.78
74635;BME280;63140;56.306;43.984;2022-12-18T12:09:56;98468.56;;;-3.47;78.21
74635;BME280;63140;56.306;43.984;2022-12-18T12:18:46;98495.31;;;-3.55;77.77
74635;BME280;63140;56.306;43.984;2022-12-18T12:40:24;98547.91;;;-3.85;78.20
74635;BME280;63140;56.306;43.984;2022-12-18T12:42:56;98543.06;;;-3.95;78.39
74635;BME280;63140;56.306;43.984;2022-12-18T12:45:54;98557.28;;;-4.10;78.58
74635;BME280;63140;56.306;43.984;2022-12-18T12:48:35;98564.44;;;-4.15;78.24
74635;BME280;63140;56.306;43.984;2022-12-18T12:53:48;98593.09;;;-4.12;78.70
74635;BME280;63140;56.306;43.984;2022-12-18T12:56:16;98595.09;;;-4.17;78.55
74635;BME280;63140;56.306;43.984;2022-12-18T13:01:36;98584.13;;;-4.32;78.33
74635;BME280;63140;56.306;43.984;2022-12-18T13:07:01;98603.47;;;-4.46;78.40
74635;BME280;63140;56.306;43.984;2022-12-18T13:09:32;98613.22;;;-4.61;78.05
74635;BME280;63140;56.306;43.984;2022-12-18T13:12:10;98609.88;;;-4.61;79.42
74635;BME280;63140;56.306;43.984;2022-12-18T13:15:12;98609.09;;;-4.62;78.39
74635;BME280;63140;56.306;43.984;2022-12-18T13:17:39;98627.41;;;-4.67;78.96
74635;BME280;63140;56.306;43.984;2022-12-18T13:20:13;98632.53;;;-4.75;78.76
74635;BME280;63140;56.306;43.984;2022-12-18T13:25:32;98646.53;;;-4.85;79.33
74635;BME280;63140;56.306;43.984;2022-12-18T13:28:13;98666.66;;;-4.82;79.34
74635;BME280;63140;56.306;43.984;2022-12-18T13:30:51;98670.13;;;-4.87;79.47
74635;BME280;63140;56.306;43.984;2022-12-18T13:36:34;98662.63;;;-4.97;79.36
74635;BME280;63140;56.306;43.984;2022-12-18T13:41:37;98658.69;;;-4.94;79.42
74635;BME280;63140;56.306;43.984;2022-12-18T13:46:50;98665.22;;;-4.97;79.21
74635;BME280;63140;56.306;43.984;2022-12-18T13:52:01;98675.41;;;-5.00;79.50
74635;BME280;63140;56.306;43.984;2022-12-18T13:54:37;98673.41;;;-5.12;79.28
74635;BME280;63140;56.306;43.984;2022-12-18T13:57:05;98692.63;;;-5.05;78.90
74635;BME280;63140;56.306;43.984;2022-12-18T13:59:49;98703.84;;;-5.09;79.05
74635;BME280;63140;56.306;43.984;2022-12-18T14:02:18;98705.56;;;-5.05;79.34
74635;BME280;63140;56.306;43.984;2022-12-18T14:04:47;98709.81;;;-5.09;79.29
74635;BME280;63140;56.306;43.984;2022-12-18T14:07:16;98708.25;;;-5.10;79.05
74635;BME280;63140;56.306;43.984;2022-12-18T14:09:45;98708.25;;;-5.10;78.89
74635;BME280;63140;56.306;43.984;2022-12-18T14:12:31;98727.44;;;-5.11;78.94
74635;BME280;63140;56.306;43.984;2022-12-18T14:20:47;98736.03;;;-5.24;77.60
74635;BME280;63140;56.306;43.984;2022-12-18T14:23:45;98732.94;;;-5.35;78.41
74635;BME280;63140;56.306;43.984;2022-12-18T14:26:37;98753.34;;;-5.33;78.43
74635;BME280;63140;56.306;43.984;2022-12-18T14:29:26;98750.78;;;-5.33;78.59
74635;BME280;63140;56.306;43.984;2022-12-18T14:34:31;98773.41;;;-5.39;78.09
74635;BME280;63140;56.306;43.984;2022-12-18T14:36:57;98763.47;;;-5.45;78.14
74635;BME280;63140;56.306;43.984;2022-12-18T14:39:23;98764.81;;;-5.48;77.64
74635;BME280;63140;56.306;43.984;2022-12-18T14:41:51;98762.53;;;-5.49;77.93
74635;BME280;63140;56.306;43.984;2022-12-18T14:44:18;98760.03;;;-5.55;77.87
74635;BME280;63140;56.306;43.984;2022-12-18T14:46:45;98751.81;;;-5.57;78.42
74635;BME280;63140;56.306;43.984;2022-12-18T14:49:31;98774.97;;;-5.52;77.64
74635;BME280;63140;56.306;43.984;2022-12-18T14:52:05;98770.28;;;-5.49;78.30
74635;BME280;63140;56.306;43.984;2022-12-18T14:54:32;98779.28;;;-5.47;78.34